sensor_id;sensor_type;location;lat;lon;timestamp;pressure;altitude;pressure_sealevel;temperature;humidity
57086;BME280;42964;42.910;23.792;2023-03-11T00:01:11;95748.13;;;12.09;84.56
57086;BME280;42964;42.910;23.792;2023-03-11T00:06:10;95742.06;;;11.86;85.88
57086;BME280;42964;42.910;23.792;2023-03-11T00:11:09;95721.97;;;11.68;86.00
57086;BME280;42964;42.910;23.792;2023-03-11T00:16:08;95722.03;;;11.66;86.26
57086;BME280;42964;42.910;23.792;2023-03-11T00:21:11;95712.75;;;11.59;86.58
57086;BME280;42964;42.910;23.792;2023-03-11T00:26:12;95707.16;;;11.48;87.05
57086;BME280;42964;42.910;23.792;2023-03-11T00:31:11;95690.31;;;11.58;86.51
57086;BME280;42964;42.910;23.792;2023-03-11T00:36:29;95704.53;;;11.72;86.63
57086;BME280;42964;42.910;23.792;2023-03-11T00:41:34;95709.66;;;11.73;86.84
57086;BME280;42964;42.910;23.792;2023-03-11T00:46:33;95744.84;;;11.58;87.17
57086;BME280;42964;42.910;23.792;2023-03-11T00:51:32;95772.94;;;11.49;89.03
57086;BME280;42964;42.910;23.792;2023-03-11T00:56:31;95768.56;;;11.49;89.50
57086;BME280;42964;42.910;23.792;2023-03-11T01:01:30;95759.19;;;11.45;88.59
57086;BME280;42964;42.910;23.792;2023-03-11T01:06:29;95756.88;;;11.61;88.16
57086;BME280;42964;42.910;23.792;2023-03-11T01:11:28;95744.34;;;11.49;86.86
57086;BME280;42964;42.910;23.792;2023-03-11T01:16:27;95748.75;;;11.70;86.65
57086;BME280;42964;42.910;23.792;2023-03-11T01:21:25;95747.66;;;11.76;86.83
57086;BME280;42964;42.910;23.792;2023-03-11T01:26:24;95743.50;;;11.72;86.36
57086;BME280;42964;42.910;23.792;2023-03-11T01:31:23;95756.75;;;11.64;85.88
57086;BME280;42964;42.910;23.792;2023-03-11T01:36:22;95755.06;;;11.63;85.84
57086;BME280;42964;42.910;23.792;2023-03-11T01:41:21;95756.16;;;11.57;86.36
57086;BME280;42964;42.910;23.792;2023-03-11T01:46:30;95732.97;;;11.53;87.89
57086;BME280;42964;42.910;23.792;2023-03-11T01:51:33;95720.81;;;11.30;88.98
57086;BME280;42964;42.910;23.792;2023-03-11T01:56:34;95710.69;;;11.22;89.63
57086;BME280;42964;42.910;23.792;2023-03-11T02:01:33;95711.13;;;11.10;90.30
57086;BME280;42964;42.910;23.792;2023-03-11T02:06:33;95698.78;;;11.16;90.42
57086;BME280;42964;42.910;23.792;2023-03-11T02:11:32;95686.31;;;11.02;90.03
57086;BME280;42964;42.910;23.792;2023-03-11T02:16:31;95681.91;;;11.04;89.89
57086;BME280;42964;42.910;23.792;2023-03-11T02:21:31;95665.59;;;11.01;88.83
57086;BME280;42964;42.910;23.792;2023-03-11T02:26:54;95634.69;;;10.95;87.58
57086;BME280;42964;42.910;23.792;2023-03-11T02:31:55;95656.91;;;11.02;86.94
57086;BME280;42964;42.910;23.792;2023-03-11T02:36:55;95635.56;;;10.94;87.10
57086;BME280;42964;42.910;23.792;2023-03-11T02:41:54;95662.41;;;10.94;86.11
57086;BME280;42964;42.910;23.792;2023-03-11T02:46:53;95689.84;;;11.00;85.68
57086;BME280;42964;42.910;23.792;2023-03-11T02:51:52;95708.66;;;11.07;85.01
57086;BME280;42964;42.910;23.792;2023-03-11T02:56:51;95715.19;;;11.17;83.57
57086;BME280;42964;42.910;23.792;2023-03-11T03:01:50;95726.84;;;11.30;82.96
57086;BME280;42964;42.910;23.792;2023-03-11T03:06:49;95733.47;;;11.39;82.20
57086;BME280;42964;42.910;23.792;2023-03-11T03:11:48;95739.78;;;11.32;83.68
57086;BME280;42964;42.910;23.792;2023-03-11T03:16:47;95746.66;;;11.33;83.00
57086;BME280;42964;42.910;23.792;2023-03-11T03:21:46;95730.25;;;11.32;83.64
57086;BME280;42964;42.910;23.792;2023-03-11T03:26:44;95743.84;;;11.15;79.74
57086;BME280;42964;42.910;23.792;2023-03-11T03:31:43;95744.19;;;11.04;77.30
57086;BME280;42964;42.910;23.792;2023-03-11T03:36:42;95753.88;;;11.24;77.28
57086;BME280;42964;42.910;23.792;2023-03-11T03:41:41;95745.94;;;11.29;78.22
57086;BME280;42964;42.910;23.792;2023-03-11T03:46:40;95738.03;;;11.32;77.66
57086;BME280;42964;42.910;23.792;2023-03-11T03:51:39;95734.25;;;11.41;77.56
57086;BME280;42964;42.910;23.792;2023-03-11T03:56:38;95730.88;;;11.39;78.15
57086;BME280;42964;42.910;23.792;2023-03-11T04:01:37;95728.78;;;11.25;77.62
57086;BME280;42964;42.910;23.792;2023-03-11T04:06:35;95721.16;;;10.95;75.11
57086;BME280;42964;42.910;23.792;2023-03-11T04:11:34;95728.06;;;10.96;77.17
57086;BME280;42964;42.910;23.792;2023-03-11T04:16:33;95720.09;;;11.01;75.75
57086;BME280;42964;42.910;23.792;2023-03-11T04:21:33;95670.63;;;10.80;75.50
57086;BME280;42964;42.910;23.792;2023-03-11T04:26:32;95717.44;;;11.02;75.60
57086;BME280;42964;42.910;23.792;2023-03-11T04:31:31;95731.75;;;10.89;73.89
57086;BME280;42964;42.910;23.792;2023-03-11T04:36:30;95747.72;;;11.03;72.46
57086;BME280;42964;42.910;23.792;2023-03-11T04:41:29;95741.91;;;11.20;71.82
57086;BME280;42964;42.910;23.792;2023-03-11T04:46:27;95724.53;;;11.22;71.61
57086;BME280;42964;42.910;23.792;2023-03-11T04:51:26;95743.22;;;11.32;69.30
57086;BME280;42964;42.910;23.792;2023-03-11T04:56:25;95739.94;;;11.51;69.65
57086;BME280;42964;42.910;23.792;2023-03-11T05:01:24;95749.88;;;11.63;70.75
57086;BME280;42964;42.910;23.792;2023-03-11T05:06:23;95751.34;;;11.70;70.26
57086;BME280;42964;42.910;23.792;2023-03-11T05:11:22;95764.91;;;11.78;68.81
57086;BME280;42964;42.910;23.792;2023-03-11T05:16:21;95791.44;;;11.86;69.65
57086;BME280;42964;42.910;23.792;2023-03-11T05:21:20;95777.97;;;11.99;68.88
57086;BME280;42964;42.910;23.792;2023-03-11T05:26:19;95788.38;;;11.99;68.04
57086;BME280;42964;42.910;23.792;2023-03-11T05:31:18;95798.53;;;12.05;68.02
57086;BME280;42964;42.910;23.792;2023-03-11T05:36:17;95800.22;;;12.06;66.93
57086;BME280;42964;42.910;23.792;2023-03-11T05:41:16;95779.78;;;11.97;65.88
57086;BME280;42964;42.910;23.792;2023-03-11T05:46:16;95801.19;;;12.03;65.00
57086;BME280;42964;42.910;23.792;2023-03-11T05:51:15;95807.00;;;12.10;65.68
57086;BME280;42964;42.910;23.792;2023-03-11T05:56:15;95808.94;;;12.05;64.36
57086;BME280;42964;42.910;23.792;2023-03-11T06:01:16;95808.72;;;12.11;64.16
57086;BME280;42964;42.910;23.792;2023-03-11T06:06:15;95794.81;;;12.12;62.46
57086;BME280;42964;42.910;23.792;2023-03-11T06:11:15;95807.63;;;12.17;62.16
57086;BME280;42964;42.910;23.792;2023-03-11T06:16:15;95817.91;;;12.20;62.91
57086;BME280;42964;42.910;23.792;2023-03-11T06:21:22;95794.31;;;12.02;62.32
57086;BME280;42964;42.910;23.792;2023-03-11T06:26:22;95815.31;;;12.20;62.54
57086;BME280;42964;42.910;23.792;2023-03-11T06:31:26;95820.19;;;12.29;62.96
57086;BME280;42964;42.910;23.792;2023-03-11T06:36:25;95812.47;;;12.27;62.36
57086;BME280;42964;42.910;23.792;2023-03-11T06:41:24;95825.06;;;12.37;60.82
57086;BME280;42964;42.910;23.792;2023-03-11T06:46:23;95829.34;;;12.39;60.61
57086;BME280;42964;42.910;23.792;2023-03-11T06:51:21;95831.97;;;12.60;60.86
57086;BME280;42964;42.910;23.792;2023-03-11T06:56:22;95832.94;;;12.79;60.31
57086;BME280;42964;42.910;23.792;2023-03-11T07:01:23;95829.66;;;12.96;59.82
57086;BME280;42964;42.910;23.792;2023-03-11T07:06:24;95828.22;;;12.89;58.31
57086;BME280;42964;42.910;23.792;2023-03-11T07:11:25;95831.09;;;13.03;59.46
57086;BME280;42964;42.910;23.792;2023-03-11T07:16:27;95810.91;;;13.29;58.71
57086;BME280;42964;42.910;23.792;2023-03-11T07:21:28;95801.75;;;13.80;58.92
57086;BME280;42964;42.910;23.792;2023-03-11T07:26:28;95801.66;;;14.01;56.49
57086;BME280;42964;42.910;23.792;2023-03-11T07:31:30;95802.19;;;14.09;56.23
57086;BME280;42964;42.910;23.792;2023-03-11T07:36:30;95780.31;;;13.73;55.00
57086;BME280;42964;42.910;23.792;2023-03-11T07:41:31;95794.78;;;13.99;55.63
57086;BME280;42964;42.910;23.792;2023-03-11T07:46:31;95795.97;;;14.11;54.75
57086;BME280;42964;42.910;23.792;2023-03-11T07:51:32;95719.69;;;13.49;54.63
57086;BME280;42964;42.910;23.792;2023-03-11T07:56:33;95770.06;;;13.50;54.00
57086;BME280;42964;42.910;23.792;2023-03-11T08:01:32;95764.88;;;13.69;54.63
57086;BME280;42964;42.910;23.792;2023-03-11T08:06:40;95714.22;;;13.16;53.69
57086;BME280;42964;42.910;23.792;2023-03-11T08:11:40;95742.28;;;13.49;53.63
57086;BME280;42964;42.910;23.792;2023-03-11T08:16:39;95642.44;;;13.29;54.57
57086;BME280;42964;42.910;23.792;2023-03-11T08:21:38;95596.59;;;13.25;53.76
57086;BME280;42964;42.910;23.792;2023-03-11T08:26:38;95724.34;;;14.18;51.88
57086;BME280;42964;42.910;23.792;2023-03-11T08:31:37;95684.81;;;14.26;51.92
57086;BME280;42964;42.910;23.792;2023-03-11T08:36:36;95688.06;;;14.66;52.31
57086;BME280;42964;42.910;23.792;2023-03-11T08:41:35;95701.56;;;14.76;50.88
57086;BME280;42964;42.910;23.792;2023-03-11T08:46:36;95690.59;;;15.02;50.75
57086;BME280;42964;42.910;23.792;2023-03-11T08:51:36;95685.31;;;14.87;49.35
57086;BME280;42964;42.910;23.792;2023-03-11T08:56:35;95700.91;;;14.53;48.79
57086;BME280;42964;42.910;23.792;2023-03-11T09:01:34;95684.91;;;14.42;49.45
57086;BME280;42964;42.910;23.792;2023-03-11T09:06:33;95655.06;;;14.65;48.77
57086;BME280;42964;42.910;23.792;2023-03-11T09:11:32;95671.13;;;14.75;48.65
57086;BME280;42964;42.910;23.792;2023-03-11T09:16:31;95676.63;;;15.03;48.31
57086;BME280;42964;42.910;23.792;2023-03-11T09:21:29;95688.19;;;15.15;47.04
57086;BME280;42964;42.910;23.792;2023-03-11T09:26:29;95686.88;;;15.24;47.29
57086;BME280;42964;42.910;23.792;2023-03-11T09:31:27;95678.13;;;15.41;47.04
57086;BME280;42964;42.910;23.792;2023-03-11T09:36:26;95674.50;;;15.28;45.66
57086;BME280;42964;42.910;23.792;2023-03-11T09:41:38;95670.72;;;15.00;46.60
57086;BME280;42964;42.910;23.792;2023-03-11T09:51:55;95672.41;;;15.50;46.28
57086;BME280;42964;42.910;23.792;2023-03-11T09:56:55;95676.50;;;15.72;45.66
57086;BME280;42964;42.910;23.792;2023-03-11T10:01:54;95673.25;;;15.66;45.18
57086;BME280;42964;42.910;23.792;2023-03-11T10:06:55;95676.53;;;15.22;45.45
57086;BME280;42964;42.910;23.792;2023-03-11T10:22:36;95655.63;;;15.22;44.10
57086;BME280;42964;42.910;23.792;2023-03-11T10:27:45;95647.97;;;15.51;43.22
57086;BME280;42964;42.910;23.792;2023-03-11T10:33:45;95654.88;;;15.52;42.65
57086;BME280;42964;42.910;23.792;2023-03-11T10:38:27;95641.00;;;15.83;42.70
57086;BME280;42964;42.910;23.792;2023-03-11T10:43:41;95613.31;;;15.95;42.08
57086;BME280;42964;42.910;23.792;2023-03-11T10:48:42;95631.56;;;16.27;40.47
57086;BME280;42964;42.910;23.792;2023-03-11T10:54:24;95637.47;;;16.75;41.76
57086;BME280;42964;42.910;23.792;2023-03-11T10:59:31;95622.19;;;16.98;38.47
57086;BME280;42964;42.910;23.792;2023-03-11T11:04:35;95614.34;;;17.26;37.39
57086;BME280;42964;42.910;23.792;2023-03-11T11:09:34;95611.50;;;17.29;36.58
57086;BME280;42964;42.910;23.792;2023-03-11T11:14:47;95595.34;;;17.64;35.71
57086;BME280;42964;42.910;23.792;2023-03-11T11:19:48;95550.53;;;17.82;35.34
57086;BME280;42964;42.910;23.792;2023-03-11T11:24:49;95566.09;;;18.25;36.04
57086;BME280;42964;42.910;23.792;2023-03-11T11:35:10;95576.34;;;18.93;33.68
57086;BME280;42964;42.910;23.792;2023-03-11T11:50:30;95576.97;;;18.18;36.69
57086;BME280;42964;42.910;23.792;2023-03-11T11:55:31;95567.09;;;18.22;37.26
57086;BME280;42964;42.910;23.792;2023-03-11T12:00:38;95363.53;;;17.27;37.25
57086;BME280;42964;42.910;23.792;2023-03-11T12:05:47;95563.91;;;18.44;35.83
57086;BME280;42964;42.910;23.792;2023-03-11T12:27:11;95572.69;;;18.17;35.92
57086;BME280;42964;42.910;23.792;2023-03-11T12:32:27;95581.97;;;18.61;35.88
57086;BME280;42964;42.910;23.792;2023-03-11T12:37:28;95592.00;;;17.89;35.70
57086;BME280;42964;42.910;23.792;2023-03-11T12:42:37;95599.53;;;17.11;37.82
57086;BME280;42964;42.910;23.792;2023-03-11T12:47:38;95624.53;;;15.97;39.73
57086;BME280;42964;42.910;23.792;2023-03-11T12:52:51;95624.28;;;15.54;41.70
57086;BME280;42964;42.910;23.792;2023-03-11T12:58:12;95580.09;;;15.65;43.03
57086;BME280;42964;42.910;23.792;2023-03-11T13:03:38;95610.19;;;16.04;42.47
57086;BME280;42964;42.910;23.792;2023-03-11T13:08:47;95614.66;;;16.02;41.60
57086;BME280;42964;42.910;23.792;2023-03-11T13:13:47;95623.78;;;15.95;42.23
57086;BME280;42964;42.910;23.792;2023-03-11T13:18:47;95619.47;;;16.40;41.56
57086;BME280;42964;42.910;23.792;2023-03-11T13:23:47;95634.50;;;16.81;40.68
57086;BME280;42964;42.910;23.792;2023-03-11T13:34:58;95666.38;;;17.18;41.06
57086;BME280;42964;42.910;23.792;2023-03-11T13:45:06;95684.16;;;17.13;41.40
57086;BME280;42964;42.910;23.792;2023-03-11T13:50:25;95681.41;;;17.00;40.32
57086;BME280;42964;42.910;23.792;2023-03-11T14:00:27;95706.13;;;16.66;41.46
57086;BME280;42964;42.910;23.792;2023-03-11T14:05:32;95723.53;;;16.21;43.15
57086;BME280;42964;42.910;23.792;2023-03-11T14:10:32;95729.78;;;16.02;44.48
57086;BME280;42964;42.910;23.792;2023-03-11T14:15:40;95738.38;;;15.55;45.40
57086;BME280;42964;42.910;23.792;2023-03-11T14:20:45;95740.31;;;15.18;46.11
57086;BME280;42964;42.910;23.792;2023-03-11T14:25:46;95752.44;;;14.85;46.48
57086;BME280;42964;42.910;23.792;2023-03-11T14:30:59;95764.00;;;14.61;47.41
57086;BME280;42964;42.910;23.792;2023-03-11T14:36:02;95762.59;;;14.54;47.82
57086;BME280;42964;42.910;23.792;2023-03-11T14:41:03;95777.03;;;14.44;48.29
57086;BME280;42964;42.910;23.792;2023-03-11T14:46:04;95781.22;;;14.29;48.99
57086;BME280;42964;42.910;23.792;2023-03-11T14:51:13;95795.91;;;14.13;49.34
57086;BME280;42964;42.910;23.792;2023-03-11T14:56:18;95814.00;;;14.16;49.35
57086;BME280;42964;42.910;23.792;2023-03-11T15:01:24;95777.66;;;13.75;50.08
57086;BME280;42964;42.910;23.792;2023-03-11T15:06:28;95843.38;;;14.01;50.05
57086;BME280;42964;42.910;23.792;2023-03-11T15:11:28;95821.19;;;12.69;54.95
57086;BME280;42964;42.910;23.792;2023-03-11T15:16:32;95888.50;;;12.56;57.76
57086;BME280;42964;42.910;23.792;2023-03-11T15:21:32;95908.84;;;11.74;58.20
57086;BME280;42964;42.910;23.792;2023-03-11T15:26:32;95927.94;;;11.21;58.35
57086;BME280;42964;42.910;23.792;2023-03-11T15:31:37;95937.81;;;10.82;58.72
57086;BME280;42964;42.910;23.792;2023-03-11T15:36:38;95934.50;;;10.77;61.06
57086;BME280;42964;42.910;23.792;2023-03-11T15:41:41;95940.34;;;10.55;64.14
57086;BME280;42964;42.910;23.792;2023-03-11T15:46:40;95980.19;;;9.92;66.57
57086;BME280;42964;42.910;23.792;2023-03-11T15:51:39;96004.69;;;9.78;67.02
57086;BME280;42964;42.910;23.792;2023-03-11T15:56:39;96018.56;;;9.77;65.15
57086;BME280;42964;42.910;23.792;2023-03-11T16:01:38;96050.53;;;10.09;62.72
57086;BME280;42964;42.910;23.792;2023-03-11T16:06:37;96058.66;;;9.95;60.61
57086;BME280;42964;42.910;23.792;2023-03-11T16:11:37;96061.78;;;9.75;59.01
57086;BME280;42964;42.910;23.792;2023-03-11T16:16:37;96094.78;;;9.67;58.01
57086;BME280;42964;42.910;23.792;2023-03-11T16:21:40;96114.13;;;9.52;57.07
57086;BME280;42964;42.910;23.792;2023-03-11T16:26:40;96119.16;;;9.59;56.30
57086;BME280;42964;42.910;23.792;2023-03-11T16:31:40;96134.38;;;9.72;56.52
57086;BME280;42964;42.910;23.792;2023-03-11T16:36:39;96079.88;;;9.01;58.59
57086;BME280;42964;42.910;23.792;2023-03-11T16:41:42;96156.84;;;9.33;59.42
57086;BME280;42964;42.910;23.792;2023-03-11T16:46:42;96182.19;;;9.15;60.34
57086;BME280;42964;42.910;23.792;2023-03-11T16:51:41;96018.50;;;7.81;61.88
57086;BME280;42964;42.910;23.792;2023-03-11T16:56:39;96198.06;;;8.52;63.13
57086;BME280;42964;42.910;23.792;2023-03-11T17:01:39;96212.16;;;8.36;63.32
57086;BME280;42964;42.910;23.792;2023-03-11T17:06:38;96227.19;;;8.12;64.65
57086;BME280;42964;42.910;23.792;2023-03-11T17:11:37;96250.53;;;8.06;63.93
57086;BME280;42964;42.910;23.792;2023-03-11T17:16:36;96262.63;;;8.04;62.83
57086;BME280;42964;42.910;23.792;2023-03-11T17:21:35;96222.50;;;7.80;62.25
57086;BME280;42964;42.910;23.792;2023-03-11T17:26:35;96276.34;;;8.07;61.86
57086;BME280;42964;42.910;23.792;2023-03-11T17:31:34;96287.38;;;8.19;61.41
57086;BME280;42964;42.910;23.792;2023-03-11T17:36:33;96306.25;;;8.24;63.13
57086;BME280;42964;42.910;23.792;2023-03-11T17:41:32;96322.38;;;8.40;63.71
57086;BME280;42964;42.910;23.792;2023-03-11T17:46:31;96342.97;;;8.44;66.86
57086;BME280;42964;42.910;23.792;2023-03-11T17:51:31;96341.38;;;8.36;69.11
57086;BME280;42964;42.910;23.792;2023-03-11T17:56:30;96351.06;;;8.23;68.77
57086;BME280;42964;42.910;23.792;2023-03-11T18:01:30;96359.78;;;8.16;69.85
57086;BME280;42964;42.910;23.792;2023-03-11T18:06:29;96358.16;;;8.08;69.82
57086;BME280;42964;42.910;23.792;2023-03-11T18:11:28;96378.22;;;7.88;70.78
57086;BME280;42964;42.910;23.792;2023-03-11T18:16:28;96381.75;;;7.79;72.04
57086;BME280;42964;42.910;23.792;2023-03-11T18:21:30;96374.97;;;7.71;73.17
57086;BME280;42964;42.910;23.792;2023-03-11T18:26:29;96393.38;;;7.40;74.85
57086;BME280;42964;42.910;23.792;2023-03-11T18:31:29;96400.25;;;7.38;74.82
57086;BME280;42964;42.910;23.792;2023-03-11T18:36:31;96397.75;;;7.30;76.06
57086;BME280;42964;42.910;23.792;2023-03-11T18:41:32;96412.31;;;7.39;75.46
57086;BME280;42964;42.910;23.792;2023-03-11T18:46:31;96408.78;;;7.52;74.82
57086;BME280;42964;42.910;23.792;2023-03-11T18:51:31;96407.09;;;7.48;75.53
57086;BME280;42964;42.910;23.792;2023-03-11T18:56:30;96408.72;;;7.55;75.36
57086;BME280;42964;42.910;23.792;2023-03-11T19:01:29;96422.53;;;7.51;75.39
57086;BME280;42964;42.910;23.792;2023-03-11T19:06:28;96444.03;;;7.53;75.71
57086;BME280;42964;42.910;23.792;2023-03-11T19:11:27;96442.31;;;7.52;75.43
57086;BME280;42964;42.910;23.792;2023-03-11T19:16:26;96426.88;;;7.46;75.57
57086;BME280;42964;42.910;23.792;2023-03-11T19:21:26;96467.03;;;7.75;75.87
57086;BME280;42964;42.910;23.792;2023-03-11T19:26:25;96461.06;;;7.71;75.60
57086;BME280;42964;42.910;23.792;2023-03-11T19:31:23;96473.94;;;7.74;75.71
57086;BME280;42964;42.910;23.792;2023-03-11T19:36:22;96494.63;;;7.70;76.12
57086;BME280;42964;42.910;23.792;2023-03-11T19:41:21;96504.44;;;7.26;77.28
57086;BME280;42964;42.910;23.792;2023-03-11T19:46:22;96479.69;;;7.02;76.68
57086;BME280;42964;42.910;23.792;2023-03-11T19:51:21;96472.19;;;6.73;77.12
57086;BME280;42964;42.910;23.792;2023-03-11T19:56:20;96531.50;;;6.68;77.91
57086;BME280;42964;42.910;23.792;2023-03-11T20:01:20;96540.19;;;6.44;79.32
57086;BME280;42964;42.910;23.792;2023-03-11T20:06:18;96561.66;;;6.52;79.10
57086;BME280;42964;42.910;23.792;2023-03-11T20:11:19;96558.28;;;6.38;79.14
57086;BME280;42964;42.910;23.792;2023-03-11T20:16:18;96569.47;;;6.29;79.23
57086;BME280;42964;42.910;23.792;2023-03-11T20:21:17;96575.41;;;6.42;78.26
57086;BME280;42964;42.910;23.792;2023-03-11T20:26:17;96502.56;;;6.03;78.30
57086;BME280;42964;42.910;23.792;2023-03-11T20:31:19;96588.28;;;6.54;79.56
57086;BME280;42964;42.910;23.792;2023-03-11T20:36:21;96608.00;;;6.66;79.74
57086;BME280;42964;42.910;23.792;2023-03-11T20:41:22;96602.78;;;6.72;79.95
57086;BME280;42964;42.910;23.792;2023-03-11T20:46:21;96596.78;;;6.73;79.29
57086;BME280;42964;42.910;23.792;2023-03-11T20:51:20;96616.53;;;6.70;79.80
57086;BME280;42964;42.910;23.792;2023-03-11T20:56:23;96626.88;;;6.71;79.22
57086;BME280;42964;42.910;23.792;2023-03-11T21:01:29;96643.28;;;6.43;79.63
57086;BME280;42964;42.910;23.792;2023-03-11T21:06:31;96633.78;;;6.57;79.53
57086;BME280;42964;42.910;23.792;2023-03-11T21:11:31;96639.00;;;6.35;79.33
57086;BME280;42964;42.910;23.792;2023-03-11T21:16:30;96654.47;;;6.25;78.66
57086;BME280;42964;42.910;23.792;2023-03-11T21:21:29;96650.19;;;6.28;76.86
57086;BME280;42964;42.910;23.792;2023-03-11T21:26:28;96652.75;;;6.21;74.83
57086;BME280;42964;42.910;23.792;2023-03-11T21:31:28;96654.50;;;5.97;72.29
57086;BME280;42964;42.910;23.792;2023-03-11T21:36:28;96621.06;;;5.77;68.63
57086;BME280;42964;42.910;23.792;2023-03-11T21:41:27;96646.81;;;5.86;64.07
57086;BME280;42964;42.910;23.792;2023-03-11T21:46:28;96657.09;;;5.85;60.81
57086;BME280;42964;42.910;23.792;2023-03-11T21:51:28;96643.34;;;5.76;61.72
57086;BME280;42964;42.910;23.792;2023-03-11T21:56:26;96667.41;;;5.86;57.62
57086;BME280;42964;42.910;23.792;2023-03-11T22:01:26;96662.25;;;5.77;58.94
57086;BME280;42964;42.910;23.792;2023-03-11T22:06:25;96666.53;;;5.61;61.45
57086;BME280;42964;42.910;23.792;2023-03-11T22:11:24;96662.22;;;5.52;63.77
57086;BME280;42964;42.910;23.792;2023-03-11T22:16:23;96675.94;;;5.51;64.52
57086;BME280;42964;42.910;23.792;2023-03-11T22:21:22;96670.78;;;5.33;67.72
57086;BME280;42964;42.910;23.792;2023-03-11T22:26:21;96626.16;;;5.19;67.94
57086;BME280;42964;42.910;23.792;2023-03-11T22:31:20;96666.47;;;5.23;69.51
57086;BME280;42964;42.910;23.792;2023-03-11T22:36:19;96686.16;;;5.18;69.70
57086;BME280;42964;42.910;23.792;2023-03-11T22:41:18;96687.03;;;5.20;69.07
57086;BME280;42964;42.910;23.792;2023-03-11T22:46:18;96690.44;;;5.20;69.50
57086;BME280;42964;42.910;23.792;2023-03-11T22:51:16;96623.44;;;4.79;69.27
57086;BME280;42964;42.910;23.792;2023-03-11T22:56:16;96687.81;;;5.03;69.98
57086;BME280;42964;42.910;23.792;2023-03-11T23:01:15;96702.31;;;4.93;68.85
57086;BME280;42964;42.910;23.792;2023-03-11T23:06:15;96703.03;;;4.63;69.30
57086;BME280;42964;42.910;23.792;2023-03-11T23:11:16;96715.00;;;4.58;68.87
57086;BME280;42964;42.910;23.792;2023-03-11T23:16:19;96719.25;;;4.55;69.37
57086;BME280;42964;42.910;23.792;2023-03-11T23:21:30;96722.66;;;4.52;69.02
57086;BME280;42964;42.910;23.792;2023-03-11T23:26:30;96738.03;;;4.47;68.77
57086;BME280;42964;42.910;23.792;2023-03-11T23:31:30;96737.13;;;4.38;68.90
57086;BME280;42964;42.910;23.792;2023-03-11T23:36:29;96731.03;;;4.23;69.17
57086;BME280;42964;42.910;23.792;2023-03-11T23:41:28;96730.09;;;4.11;68.03
57086;BME280;42964;42.910;23.792;2023-03-11T23:46:28;96738.59;;;4.02;67.31
57086;BME280;42964;42.910;23.792;2023-03-11T23:51:27;96741.94;;;3.95;66.63
57086;BME280;42964;42.910;23.792;2023-03-11T23:56:26;96769.22;;;3.86;66.41
